createdAt,value
2024-04-18T00:00:46.395Z,1004.79
2024-04-18T00:01:47.260Z,1004.80
2024-04-18T00:02:48.137Z,1004.80
2024-04-18T00:03:49.222Z,1004.80
2024-04-18T00:04:49.765Z,1004.80
2024-04-18T00:05:50.175Z,1004.81
2024-04-18T00:06:51.076Z,1004.81
2024-04-18T00:07:51.946Z,1004.82
2024-04-18T00:08:52.839Z,1004.84
2024-04-18T00:09:53.728Z,1004.83
2024-04-18T00:10:54.633Z,1004.84
2024-04-18T00:11:55.501Z,1004.84
2024-04-18T00:12:56.384Z,1004.84
2024-04-18T00:13:57.269Z,1004.86
2024-04-18T00:14:58.155Z,1004.85
2024-04-18T00:15:59.060Z,1004.85
2024-04-18T00:16:59.975Z,1004.85
2024-04-18T00:18:01.047Z,1004.86
2024-04-18T00:19:01.522Z,1004.87
2024-04-18T00:20:02.374Z,1004.87
2024-04-18T00:21:03.278Z,1004.87
2024-04-18T00:22:04.262Z,1004.89
2024-04-18T00:23:04.794Z,1004.88
2024-04-18T00:24:05.681Z,1004.88
2024-04-18T00:25:06.559Z,1004.88
2024-04-18T00:26:07.460Z,1004.88
2024-04-18T00:27:08.342Z,1004.88
2024-04-18T00:28:09.249Z,1004.87
2024-04-18T00:29:10.122Z,1004.88
2024-04-18T00:30:11.003Z,1004.89
2024-04-18T00:31:11.900Z,1004.89
2024-04-18T00:32:12.831Z,1004.89
2024-04-18T00:33:13.732Z,1004.91
2024-04-18T00:34:14.580Z,1004.92
2024-04-18T00:35:15.459Z,1004.92
2024-04-18T00:36:16.384Z,1004.92
2024-04-18T00:37:17.258Z,1004.92
2024-04-18T00:38:18.143Z,1004.93
2024-04-18T00:39:19.098Z,1004.92
2024-04-18T00:40:19.949Z,1004.92
2024-04-18T00:41:20.853Z,1004.92
2024-04-18T00:42:21.784Z,1004.93
2024-04-18T00:43:22.631Z,1004.93
2024-04-18T00:44:23.515Z,1004.92
2024-04-18T00:45:24.428Z,1004.93
2024-04-18T00:46:25.296Z,1004.93
2024-04-18T00:47:26.222Z,1004.94
2024-04-18T00:48:27.334Z,1004.95
2024-04-18T00:49:27.865Z,1004.97
2024-04-18T00:50:28.704Z,1004.97
2024-04-18T00:51:29.663Z,1004.99
2024-04-18T00:52:30.557Z,1004.99
2024-04-18T00:53:31.442Z,1005.01
2024-04-18T00:54:32.399Z,1005.02
2024-04-18T00:55:33.242Z,1005.01
2024-04-18T00:56:34.155Z,1005.02
2024-04-18T00:57:35.039Z,1005.03
2024-04-18T00:58:35.916Z,1005.03
2024-04-18T00:59:36.803Z,1005.03
2024-04-18T01:00:37.703Z,1005.03
2024-04-18T01:01:38.601Z,1005.03
2024-04-18T01:02:39.482Z,1005.03
2024-04-18T01:03:40.406Z,1005.03
2024-04-18T01:04:41.471Z,1005.04
2024-04-18T01:05:41.901Z,1005.05
2024-04-18T01:06:42.934Z,1005.05
2024-04-18T01:07:43.388Z,1005.06
2024-04-18T01:08:44.291Z,1005.07
2024-04-18T01:09:45.186Z,1005.09
2024-04-18T01:10:46.086Z,1005.09
2024-04-18T01:11:47.035Z,1005.09
2024-04-18T01:12:47.943Z,1005.08
2024-04-18T01:13:48.843Z,1005.08
2024-04-18T01:14:49.722Z,1005.10
2024-04-18T01:15:50.658Z,1005.09
2024-04-18T01:16:51.539Z,1005.10
2024-04-18T01:17:52.501Z,1005.10
2024-04-18T01:18:53.392Z,1005.10
2024-04-18T01:19:54.265Z,1005.10
2024-04-18T01:20:55.162Z,1005.12
2024-04-18T01:21:57.560Z,1005.14
2024-04-18T01:22:56.983Z,1005.16
2024-04-18T01:23:57.867Z,1005.18
2024-04-18T01:24:58.748Z,1005.19
2024-04-18T01:25:59.632Z,1005.22
2024-04-18T01:27:00.586Z,1005.24
2024-04-18T01:28:01.441Z,1005.26
2024-04-18T01:29:02.340Z,1005.26
2024-04-18T01:30:03.220Z,1005.27
2024-04-18T01:31:04.101Z,1005.27
2024-04-18T01:32:04.997Z,1005.27
2024-04-18T01:33:05.916Z,1005.29
2024-04-18T01:34:06.911Z,1005.29
2024-04-18T01:35:07.831Z,1005.30
2024-04-18T01:36:08.683Z,1005.31
2024-04-18T01:37:09.607Z,1005.31
2024-04-18T01:38:10.476Z,1005.33
2024-04-18T01:39:11.373Z,1005.35
2024-04-18T01:40:12.238Z,1005.37
2024-04-18T01:41:13.123Z,1005.37
2024-04-18T01:42:14.030Z,1005.37
2024-04-18T01:43:14.916Z,1005.38
2024-04-18T01:44:15.795Z,1005.38
2024-04-18T01:45:16.718Z,1005.38
2024-04-18T01:46:17.582Z,1005.39
2024-04-18T01:47:18.516Z,1005.39
2024-04-18T01:48:19.564Z,1005.39
2024-04-18T01:49:19.994Z,1005.38
2024-04-18T01:50:20.869Z,1005.39
2024-04-18T01:51:21.753Z,1005.40
2024-04-18T01:52:22.656Z,1005.39
2024-04-18T01:53:23.550Z,1005.40
2024-04-18T01:54:24.478Z,1005.41
2024-04-18T01:55:25.347Z,1005.41
2024-04-18T01:56:26.240Z,1005.44
2024-04-18T01:57:27.529Z,1005.42
2024-04-18T02:00:16.427Z,1005.44
2024-04-18T02:01:17.382Z,1005.46
2024-04-18T02:02:18.246Z,1005.45
2024-04-18T02:03:19.199Z,1005.46
2024-04-18T02:04:20.231Z,1005.45
2024-04-18T02:05:20.685Z,1005.46
2024-04-18T02:06:21.596Z,1005.46
2024-04-18T02:07:22.449Z,1005.45
2024-04-18T02:08:23.344Z,1005.45
2024-04-18T02:09:24.260Z,1005.46
2024-04-18T02:10:25.111Z,1005.45
2024-04-18T02:11:26.067Z,1005.45
2024-04-18T02:12:27.002Z,1005.46
2024-04-18T02:15:13.667Z,1005.48
2024-04-18T02:16:14.553Z,1005.50
2024-04-18T02:17:15.456Z,1005.50
2024-04-18T02:18:16.389Z,1005.51
2024-04-18T02:19:17.283Z,1005.51
2024-04-18T02:20:18.184Z,1005.53
2024-04-18T02:21:19.129Z,1005.53
2024-04-18T02:22:19.974Z,1005.53
2024-04-18T02:23:20.859Z,1005.54
2024-04-18T02:24:21.781Z,1005.54
2024-04-18T02:25:22.671Z,1005.54
2024-04-18T02:26:23.547Z,1005.55
2024-04-18T02:27:24.461Z,1005.56
2024-04-18T02:28:25.347Z,1005.56
2024-04-18T02:29:26.213Z,1005.57
2024-04-18T02:30:27.848Z,1005.59
2024-04-18T02:31:27.826Z,1005.58
2024-04-18T02:32:28.779Z,1005.58
2024-04-18T02:33:29.720Z,1005.58
2024-04-18T02:34:30.633Z,1005.58
2024-04-18T02:35:31.540Z,1005.58
2024-04-18T02:36:32.444Z,1005.59
2024-04-18T02:37:33.330Z,1005.59
2024-04-18T02:38:34.221Z,1005.60
2024-04-18T02:39:36.825Z,1005.61
2024-04-18T02:40:35.919Z,1005.61
2024-04-18T02:41:36.787Z,1005.62
2024-04-18T02:42:37.694Z,1005.65
2024-04-18T02:43:38.581Z,1005.66
2024-04-18T02:44:39.449Z,1005.67
2024-04-18T02:45:40.427Z,1005.68
2024-04-18T02:46:41.270Z,1005.69
2024-04-18T02:47:42.200Z,1005.70
2024-04-18T02:48:43.073Z,1005.70
2024-04-18T02:49:43.941Z,1005.71
2024-04-18T02:50:44.844Z,1005.71
2024-04-18T02:51:45.817Z,1005.73
2024-04-18T02:52:46.696Z,1005.75
2024-04-18T02:53:47.581Z,1005.77
2024-04-18T02:54:48.489Z,1005.78
2024-04-18T02:55:49.366Z,1005.79
2024-04-18T02:56:50.250Z,1005.80
2024-04-18T02:57:51.181Z,1005.81
2024-04-18T02:58:52.033Z,1005.82
2024-04-18T02:59:52.916Z,1005.85
2024-04-18T03:00:54.275Z,1005.86
2024-04-18T03:01:54.623Z,1005.88
2024-04-18T03:02:55.602Z,1005.87
2024-04-18T03:03:56.205Z,1005.87
2024-04-18T03:04:56.647Z,1005.86
2024-04-18T03:05:57.532Z,1005.85
2024-04-18T03:06:58.423Z,1005.87
2024-04-18T03:07:59.360Z,1005.87
2024-04-18T03:09:00.202Z,1005.89
2024-04-18T03:10:01.131Z,1005.90
2024-04-18T03:11:02.001Z,1005.90
2024-04-18T03:12:02.873Z,1005.91
2024-04-18T03:13:03.756Z,1005.91
2024-04-18T03:14:04.667Z,1005.93
2024-04-18T03:15:05.546Z,1005.94
2024-04-18T03:16:06.445Z,1005.94
2024-04-18T03:17:07.349Z,1005.97
2024-04-18T03:18:08.278Z,1005.98
2024-04-18T03:19:09.217Z,1006.01
2024-04-18T03:20:10.124Z,1006.02
2024-04-18T03:21:11.037Z,1006.03
2024-04-18T03:22:11.916Z,1006.04
2024-04-18T03:23:12.798Z,1006.05
2024-04-18T03:24:13.754Z,1006.04
2024-04-18T03:25:14.686Z,1006.05
2024-04-18T03:26:15.564Z,1006.06
2024-04-18T03:27:16.462Z,1006.07
2024-04-18T03:28:17.331Z,1006.09
2024-04-18T03:29:18.322Z,1006.10
2024-04-18T03:30:19.213Z,1006.11
2024-04-18T03:31:20.095Z,1006.12
2024-04-18T03:32:21.006Z,1006.13
2024-04-18T03:33:22.020Z,1006.14
2024-04-18T03:34:22.389Z,1006.16
2024-04-18T03:35:23.263Z,1006.16
2024-04-18T03:36:24.175Z,1006.16
2024-04-18T03:37:25.043Z,1006.17
2024-04-18T03:38:25.924Z,1006.18
2024-04-18T03:39:26.860Z,1006.19
2024-04-18T03:40:27.704Z,1006.21
2024-04-18T03:41:28.608Z,1006.20
2024-04-18T03:42:29.511Z,1006.20
2024-04-18T03:43:30.370Z,1006.19
2024-04-18T03:44:31.258Z,1006.20
2024-04-18T03:45:32.268Z,1006.22
2024-04-18T03:46:33.261Z,1006.24
2024-04-18T03:47:33.760Z,1006.26
2024-04-18T03:48:34.405Z,1006.27
2024-04-18T03:49:34.781Z,1006.28
2024-04-18T03:50:35.655Z,1006.29
2024-04-18T03:51:36.597Z,1006.30
2024-04-18T03:52:37.473Z,1006.29
2024-04-18T03:53:38.357Z,1006.31
2024-04-18T03:54:55.494Z,1006.31
2024-04-18T03:55:40.999Z,1006.31
2024-04-18T03:56:40.906Z,1006.31
2024-04-18T03:57:41.824Z,1006.30
2024-04-18T03:58:42.684Z,1006.31
2024-04-18T03:59:43.575Z,1006.31
2024-04-18T04:00:44.535Z,1006.33
2024-04-18T04:01:45.512Z,1006.37
2024-04-18T04:02:46.375Z,1006.40
2024-04-18T04:03:47.333Z,1006.43
2024-04-18T04:04:48.193Z,1006.45
2024-04-18T04:05:49.089Z,1006.46
2024-04-18T04:06:50.006Z,1006.46
2024-04-18T04:07:50.897Z,1006.48
2024-04-18T04:08:51.799Z,1006.50
2024-04-18T04:09:52.696Z,1006.51
2024-04-18T04:10:53.623Z,1006.51
2024-04-18T04:11:54.508Z,1006.51
2024-04-18T04:12:55.447Z,1006.52
2024-04-18T04:13:59.355Z,1006.53
2024-04-18T04:14:57.287Z,1006.55
2024-04-18T04:15:58.212Z,1006.57
2024-04-18T04:16:59.159Z,1006.58
2024-04-18T04:18:00.141Z,1006.58
2024-04-18T04:19:00.733Z,1006.61
2024-04-18T04:20:01.167Z,1006.62
2024-04-18T04:21:02.048Z,1006.64
2024-04-18T04:22:02.778Z,1006.66
2024-04-18T04:23:03.661Z,1006.68
2024-04-18T04:24:04.573Z,1006.69
2024-04-18T04:25:05.431Z,1006.70
2024-04-18T04:26:06.311Z,1006.71
2024-04-18T04:27:07.763Z,1006.74
2024-04-18T04:28:08.133Z,1006.75
2024-04-18T04:29:09.020Z,1006.76
2024-04-18T04:30:09.909Z,1006.77
2024-04-18T04:31:10.784Z,1006.79
2024-04-18T04:32:11.689Z,1006.80
2024-04-18T04:33:12.627Z,1006.82
2024-04-18T04:34:13.529Z,1006.84
2024-04-18T04:35:14.388Z,1006.85
2024-04-18T04:36:15.306Z,1006.87
2024-04-18T04:37:16.187Z,1006.88
2024-04-18T04:38:17.068Z,1006.90
2024-04-18T04:39:17.981Z,1006.92
2024-04-18T04:40:18.844Z,1006.94
2024-04-18T04:41:19.718Z,1006.97
2024-04-18T04:42:20.650Z,1006.99
2024-04-18T04:43:21.505Z,1007.02
2024-04-18T04:44:22.391Z,1007.04
2024-04-18T04:45:23.318Z,1007.06
2024-04-18T04:46:24.160Z,1007.08
2024-04-18T04:47:25.062Z,1007.10
2024-04-18T04:48:26.079Z,1007.11
2024-04-18T04:49:26.536Z,1007.13
2024-04-18T04:50:27.423Z,1007.14
2024-04-18T04:51:28.363Z,1007.16
2024-04-18T04:52:29.218Z,1007.16
2024-04-18T04:53:30.099Z,1007.18
2024-04-18T04:54:30.998Z,1007.18
2024-04-18T04:55:31.924Z,1007.20
2024-04-18T04:56:32.822Z,1007.21
2024-04-18T04:57:33.732Z,1007.21
2024-04-18T04:58:34.599Z,1007.21
2024-04-18T04:59:35.472Z,1007.20
2024-04-18T05:00:36.379Z,1007.20
2024-04-18T05:01:37.266Z,1007.21
2024-04-18T05:02:40.648Z,1007.22
2024-04-18T05:03:39.040Z,1007.23
2024-04-18T05:04:39.448Z,1007.25
2024-04-18T05:05:40.334Z,1007.26
2024-04-18T05:06:41.249Z,1007.28
2024-04-18T05:07:42.170Z,1007.30
2024-04-18T05:08:43.050Z,1007.31
2024-04-18T05:09:43.962Z,1007.33
2024-04-18T05:10:44.915Z,1007.36
2024-04-18T05:11:45.345Z,1007.38
2024-04-18T05:12:46.340Z,1007.40
2024-04-18T05:13:47.205Z,1007.42
2024-04-18T05:14:48.123Z,1007.44
2024-04-18T05:15:49.059Z,1007.45
2024-04-18T05:16:49.947Z,1007.47
2024-04-18T05:17:50.859Z,1007.50
2024-04-18T05:18:51.733Z,1007.50
2024-04-18T05:19:52.589Z,1007.52
2024-04-18T05:20:53.470Z,1007.52
2024-04-18T05:21:54.387Z,1007.53
2024-04-18T05:22:55.261Z,1007.55
2024-04-18T05:23:56.128Z,1007.58
2024-04-18T05:24:57.058Z,1007.59
2024-04-18T05:25:57.981Z,1007.62
2024-04-18T05:26:58.862Z,1007.64
2024-04-18T05:27:59.864Z,1007.66
2024-04-18T05:29:00.245Z,1007.68
2024-04-18T05:30:01.129Z,1007.70
2024-04-18T05:31:02.082Z,1007.72
2024-04-18T05:32:02.969Z,1007.74
2024-04-18T05:33:04.206Z,1007.76
2024-04-18T05:34:04.618Z,1007.79
2024-04-18T05:35:05.482Z,1007.80
2024-04-18T05:36:06.360Z,1007.81
2024-04-18T05:37:10.173Z,1007.80
2024-04-18T05:38:08.152Z,1007.80
2024-04-18T05:39:09.027Z,1007.81
2024-04-18T05:40:09.913Z,1007.80
2024-04-18T05:41:10.794Z,1007.81
2024-04-18T05:42:11.672Z,1007.82
2024-04-18T05:43:12.851Z,1007.84
2024-04-18T05:44:13.225Z,1007.84
2024-04-18T05:45:14.135Z,1007.85
2024-04-18T05:46:14.998Z,1007.86
2024-04-18T05:47:15.984Z,1007.87
2024-04-18T05:48:16.907Z,1007.88
2024-04-18T05:49:17.785Z,1007.88
2024-04-18T05:50:18.647Z,1007.88
2024-04-18T05:51:19.567Z,1007.88
2024-04-18T05:52:20.410Z,1007.89
2024-04-18T05:53:21.394Z,1007.90
2024-04-18T05:54:22.245Z,1007.90
2024-04-18T05:55:23.111Z,1007.90
2024-04-18T05:56:24.008Z,1007.91
2024-04-18T05:57:24.909Z,1007.93
2024-04-18T05:58:25.777Z,1007.93
2024-04-18T05:59:26.661Z,1007.94
2024-04-18T06:00:27.589Z,1007.96
2024-04-18T06:01:28.566Z,1007.96
2024-04-18T06:02:29.450Z,1007.97
2024-04-18T06:03:30.431Z,1007.98
2024-04-18T06:04:31.332Z,1008.00
2024-04-18T06:05:32.205Z,1008.02
2024-04-18T06:06:33.138Z,1008.05
2024-04-18T06:07:33.992Z,1008.06
2024-04-18T06:08:34.882Z,1008.08
2024-04-18T06:09:35.767Z,1008.10
2024-04-18T06:10:36.675Z,1008.09
2024-04-18T06:11:37.746Z,1008.10
2024-04-18T06:12:38.136Z,1008.11
2024-04-18T06:13:39.021Z,1008.11
2024-04-18T06:14:39.901Z,1008.12
2024-04-18T06:15:40.855Z,1008.15
2024-04-18T06:16:41.720Z,1008.16
2024-04-18T06:17:42.688Z,1008.18
2024-04-18T06:18:43.377Z,1008.18
2024-04-18T06:19:44.239Z,1008.19
2024-04-18T06:20:45.105Z,1008.19
2024-04-18T06:21:45.999Z,1008.17
2024-04-18T06:22:46.870Z,1008.19
2024-04-18T06:23:48.041Z,1008.20
2024-04-18T06:24:49.120Z,1008.20
2024-04-18T06:25:49.066Z,1008.19
2024-04-18T06:26:49.945Z,1008.21
2024-04-18T06:27:50.965Z,1008.22
2024-04-18T06:28:51.368Z,1008.25
2024-04-18T06:29:52.247Z,1008.24
2024-04-18T06:30:53.224Z,1008.24
2024-04-18T06:31:53.649Z,1008.24
2024-04-18T06:32:54.614Z,1008.25
2024-04-18T06:33:55.160Z,1008.24
2024-04-18T06:34:55.601Z,1008.25
2024-04-18T06:35:56.474Z,1008.25
2024-04-18T06:36:57.379Z,1008.26
2024-04-18T06:37:58.242Z,1008.27
2024-04-18T06:38:59.142Z,1008.28
2024-04-18T06:40:00.072Z,1008.26
2024-04-18T06:41:00.989Z,1008.27
2024-04-18T06:42:01.874Z,1008.27
2024-04-18T06:43:02.820Z,1008.25
2024-04-18T06:44:03.772Z,1008.28
2024-04-18T06:45:04.643Z,1008.30
2024-04-18T06:46:05.539Z,1008.29
2024-04-18T06:47:06.484Z,1008.30
2024-04-18T06:48:07.397Z,1008.30
2024-04-18T06:49:08.311Z,1008.32
2024-04-18T06:50:09.227Z,1008.31
2024-04-18T06:51:10.104Z,1008.32
2024-04-18T06:52:10.989Z,1008.34
2024-04-18T06:53:11.885Z,1008.35
2024-04-18T06:54:12.767Z,1008.36
2024-04-18T06:55:13.663Z,1008.36
2024-04-18T06:56:14.543Z,1008.38
2024-04-18T06:57:15.429Z,1008.39
2024-04-18T06:58:16.310Z,1008.41
2024-04-18T06:59:17.218Z,1008.43
2024-04-18T07:00:18.108Z,1008.44
2024-04-18T07:01:18.742Z,1008.45
2024-04-18T07:02:19.657Z,1008.45
2024-04-18T07:03:20.612Z,1008.47
2024-04-18T07:04:21.627Z,1008.46
2024-04-18T07:05:22.102Z,1008.47
2024-04-18T07:06:23.037Z,1008.48
2024-04-18T07:07:23.904Z,1008.46
2024-04-18T07:08:24.788Z,1008.47
2024-04-18T07:09:25.700Z,1008.47
2024-04-18T07:10:26.703Z,1008.46
2024-04-18T07:11:27.575Z,1008.46
2024-04-18T07:12:28.435Z,1008.48
2024-04-18T07:13:29.400Z,1008.48
2024-04-18T07:14:30.287Z,1008.51
2024-04-18T07:15:31.221Z,1008.51
2024-04-18T07:16:32.058Z,1008.54
2024-04-18T07:17:33.008Z,1008.54
2024-04-18T07:18:34.071Z,1008.54
2024-04-18T07:19:34.559Z,1008.55
2024-04-18T07:20:35.436Z,1008.55
2024-04-18T07:21:36.319Z,1008.55
2024-04-18T07:22:37.182Z,1008.57
2024-04-18T07:23:38.072Z,1008.61
2024-04-18T07:24:39.007Z,1008.59
2024-04-18T07:25:39.881Z,1008.59
2024-04-18T07:26:40.755Z,1008.59
2024-04-18T07:27:41.678Z,1008.59
2024-04-18T07:28:42.533Z,1008.60
2024-04-18T07:29:43.439Z,1008.62
2024-04-18T07:30:44.339Z,1008.61
2024-04-18T07:31:45.201Z,1008.63
2024-04-18T07:32:46.190Z,1008.64
2024-04-18T07:33:46.686Z,1008.62
2024-04-18T07:34:47.592Z,1008.62
2024-04-18T07:35:48.488Z,1008.63
2024-04-18T07:36:50.049Z,1008.65
2024-04-18T07:37:50.140Z,1008.67
2024-04-18T07:38:51.031Z,1008.69
2024-04-18T07:39:51.964Z,1008.70
2024-04-18T07:40:52.826Z,1008.72
2024-04-18T07:41:53.706Z,1008.70
2024-04-18T07:42:54.720Z,1008.72
2024-04-18T07:43:55.089Z,1008.78
2024-04-18T07:44:55.986Z,1008.77
2024-04-18T07:45:56.930Z,1008.75
2024-04-18T07:46:57.787Z,1008.76
2024-04-18T07:47:58.744Z,1008.77
2024-04-18T07:48:59.648Z,1008.79
2024-04-18T07:50:00.568Z,1008.79
2024-04-18T07:51:01.423Z,1008.79
2024-04-18T07:52:09.376Z,1008.80
2024-04-18T07:53:09.647Z,1008.81
2024-04-18T07:55:13.886Z,1008.85
2024-04-18T07:56:14.721Z,1008.87
2024-04-18T07:57:15.577Z,1008.88
2024-04-18T07:58:16.335Z,1008.90
2024-04-18T07:59:16.963Z,1008.92
2024-04-18T08:00:18.005Z,1008.92
2024-04-18T08:01:19.601Z,1008.91
2024-04-18T08:02:20.453Z,1008.92
2024-04-18T08:03:21.495Z,1008.90
2024-04-18T08:04:44.185Z,1008.92
2024-04-18T08:05:23.873Z,1008.93
2024-04-18T08:06:24.876Z,1008.93
2024-04-18T08:07:24.821Z,1008.92
2024-04-18T08:08:26.679Z,1008.96
2024-04-18T08:09:27.852Z,1008.96
2024-04-18T08:10:33.078Z,1008.99
2024-04-18T08:11:53.347Z,1008.98
2024-04-18T08:12:29.930Z,1009.00
2024-04-18T08:13:30.991Z,1009.01
2024-04-18T08:14:32.737Z,1009.04
2024-04-18T08:16:30.132Z,1009.06
2024-04-18T08:17:30.163Z,1009.05
2024-04-18T08:18:30.561Z,1009.08
2024-04-18T08:19:31.415Z,1009.13
2024-04-18T08:20:32.310Z,1009.14
2024-04-18T08:21:33.280Z,1009.15
2024-04-18T08:22:34.145Z,1009.16
2024-04-18T08:23:35.120Z,1009.18
2024-04-18T08:24:36.016Z,1009.18
2024-04-18T08:25:36.878Z,1009.18
2024-04-18T08:26:37.763Z,1009.19
2024-04-18T08:27:38.681Z,1009.21
2024-04-18T08:28:39.532Z,1009.22
2024-04-18T08:29:40.418Z,1009.24
2024-04-18T08:30:41.332Z,1009.24
2024-04-18T08:31:42.218Z,1009.24
2024-04-18T08:32:43.165Z,1009.26
2024-04-18T08:33:53.910Z,1009.27
2024-04-18T08:34:47.949Z,1009.25
2024-04-18T08:35:45.788Z,1009.31
2024-04-18T08:36:46.677Z,1009.28
2024-04-18T08:37:47.545Z,1009.32
2024-04-18T08:38:48.428Z,1009.31
2024-04-18T08:39:49.320Z,1009.34
2024-04-18T08:40:50.218Z,1009.35
2024-04-18T08:41:51.095Z,1009.32
2024-04-18T08:42:51.978Z,1009.34
2024-04-18T08:43:57.247Z,1009.31
2024-04-18T08:44:53.347Z,1009.31
2024-04-18T08:45:54.254Z,1009.30
2024-04-18T08:46:55.132Z,1009.32
2024-04-18T08:47:56.091Z,1009.30
2024-04-18T08:48:57.029Z,1009.28
2024-04-18T08:49:57.460Z,1009.29
2024-04-18T08:50:58.365Z,1009.27
2024-04-18T08:51:59.256Z,1009.27
2024-04-18T08:53:00.132Z,1009.27
2024-04-18T08:54:01.040Z,1009.27
2024-04-18T08:55:01.885Z,1009.27
2024-04-18T08:56:02.842Z,1009.28
2024-04-18T08:57:03.707Z,1009.28
2024-04-18T08:58:04.591Z,1009.29
2024-04-18T08:59:05.475Z,1009.29
2024-04-18T09:00:06.425Z,1009.29
2024-04-18T09:01:07.358Z,1009.28
2024-04-18T09:02:08.221Z,1009.27
2024-04-18T09:03:09.122Z,1009.26
2024-04-18T09:04:10.002Z,1009.26
2024-04-18T09:05:10.865Z,1009.28
2024-04-18T09:06:11.847Z,1009.28
2024-04-18T09:07:12.744Z,1009.31
2024-04-18T09:08:13.609Z,1009.32
2024-04-18T09:09:14.505Z,1009.33
2024-04-18T09:10:15.408Z,1009.34
2024-04-18T09:11:16.312Z,1009.33
2024-04-18T09:12:17.214Z,1009.34
2024-04-18T09:13:18.068Z,1009.35
2024-04-18T09:14:18.943Z,1009.35
2024-04-18T09:15:19.842Z,1009.35
2024-04-18T09:16:20.727Z,1009.38
2024-04-18T09:17:21.686Z,1009.39
2024-04-18T09:18:22.589Z,1009.41
2024-04-18T09:19:23.514Z,1009.40
2024-04-18T09:20:24.363Z,1009.41
2024-04-18T09:21:25.281Z,1009.40
2024-04-18T09:22:26.162Z,1009.42
2024-04-18T09:23:27.038Z,1009.42
2024-04-18T09:24:27.953Z,1009.42
2024-04-18T09:25:28.812Z,1009.46
2024-04-18T09:26:29.716Z,1009.42
2024-04-18T09:27:30.685Z,1009.43
2024-04-18T09:28:31.561Z,1009.45
2024-04-18T09:29:32.451Z,1009.46
2024-04-18T09:30:33.467Z,1009.46
2024-04-18T09:31:38.604Z,1009.47
2024-04-18T09:32:35.874Z,1009.46
2024-04-18T09:33:36.068Z,1009.47
2024-04-18T09:34:36.470Z,1009.44
2024-04-18T09:35:37.344Z,1009.44
2024-04-18T09:36:38.398Z,1009.45
2024-04-18T09:37:39.761Z,1009.47
2024-04-18T09:38:39.294Z,1009.40
2024-04-18T09:39:40.192Z,1009.40
2024-04-18T09:40:41.068Z,1009.38
2024-04-18T09:41:41.953Z,1009.37
2024-04-18T09:42:42.870Z,1009.38
2024-04-18T09:43:43.735Z,1009.43
2024-04-18T09:44:44.626Z,1009.46
2024-04-18T09:45:45.522Z,1009.40
2024-04-18T09:46:46.397Z,1009.44
2024-04-18T09:47:47.302Z,1009.49
2024-04-18T09:48:48.298Z,1009.48
2024-04-18T09:49:50.859Z,1009.48
2024-04-18T09:50:49.361Z,1009.48
2024-04-18T09:51:50.276Z,1009.51
2024-04-18T09:52:51.164Z,1009.50
2024-04-18T09:53:52.048Z,1009.48
2024-04-18T09:54:52.925Z,1009.49
2024-04-18T09:55:53.807Z,1009.50
2024-04-18T09:56:54.722Z,1009.48
2024-04-18T09:57:55.602Z,1009.46
2024-04-18T09:58:56.480Z,1009.47
2024-04-18T09:59:57.361Z,1009.46
2024-04-18T10:00:58.277Z,1009.44
2024-04-18T10:01:59.220Z,1009.45
2024-04-18T10:03:00.183Z,1009.50
2024-04-18T10:04:00.705Z,1009.45
2024-04-18T10:05:01.149Z,1009.47
2024-04-18T10:06:02.123Z,1009.45
2024-04-18T10:07:03.015Z,1009.45
2024-04-18T10:08:03.920Z,1009.46
2024-04-18T10:09:04.797Z,1009.46
2024-04-18T10:10:05.665Z,1009.44
2024-04-18T10:11:06.584Z,1009.45
2024-04-18T10:12:07.528Z,1009.48
2024-04-18T10:13:08.395Z,1009.41
2024-04-18T10:14:09.288Z,1009.38
2024-04-18T10:15:10.266Z,1009.37
2024-04-18T10:16:11.121Z,1009.38
2024-04-18T10:17:12.025Z,1009.37
2024-04-18T10:18:13.217Z,1009.37
2024-04-18T10:19:13.973Z,1009.39
2024-04-18T10:20:14.436Z,1009.42
2024-04-18T10:21:15.414Z,1009.41
2024-04-18T10:22:23.807Z,1009.40
2024-04-18T10:23:17.961Z,1009.40
2024-04-18T10:24:17.867Z,1009.46
2024-04-18T10:25:18.799Z,1009.43
2024-04-18T10:26:19.693Z,1009.42
2024-04-18T10:27:20.644Z,1009.43
2024-04-18T10:28:21.483Z,1009.42
2024-04-18T10:29:22.359Z,1009.42
2024-04-18T10:30:23.330Z,1009.39
2024-04-18T10:31:24.188Z,1009.37
2024-04-18T10:32:25.127Z,1009.39
2024-04-18T10:33:26.060Z,1009.40
2024-04-18T10:34:26.947Z,1009.42
2024-04-18T10:35:27.841Z,1009.39
2024-04-18T10:36:28.732Z,1009.38
2024-04-18T10:37:29.641Z,1009.40
2024-04-18T10:38:30.539Z,1009.37
2024-04-18T10:39:31.428Z,1009.34
2024-04-18T10:40:32.310Z,1009.38
2024-04-18T10:41:33.195Z,1009.39
2024-04-18T10:42:34.123Z,1009.45
2024-04-18T10:43:34.997Z,1009.42
2024-04-18T10:44:35.881Z,1009.44
2024-04-18T10:45:36.853Z,1009.49
2024-04-18T10:46:37.731Z,1009.48
2024-04-18T10:47:38.651Z,1009.50
2024-04-18T10:48:39.675Z,1009.43
2024-04-18T10:49:40.118Z,1009.43
2024-04-18T10:50:41.036Z,1009.46
2024-04-18T10:51:41.985Z,1009.43
2024-04-18T10:52:42.909Z,1009.42
2024-04-18T10:53:43.803Z,1009.51
2024-04-18T10:54:44.722Z,1009.58
2024-04-18T10:55:45.579Z,1009.56
2024-04-18T10:56:46.467Z,1009.50
2024-04-18T10:57:47.394Z,1009.54
2024-04-18T10:58:48.246Z,1009.52
2024-04-18T10:59:49.304Z,1009.50
2024-04-18T11:00:49.767Z,1009.51
2024-04-18T11:01:50.625Z,1009.50
2024-04-18T11:02:51.531Z,1009.49
2024-04-18T11:03:52.541Z,1009.52
2024-04-18T11:04:52.973Z,1009.55
2024-04-18T11:05:53.840Z,1009.60
2024-04-18T11:06:54.720Z,1009.61
2024-04-18T11:07:55.622Z,1009.60
2024-04-18T11:08:56.512Z,1009.66
2024-04-18T11:09:57.478Z,1009.66
2024-04-18T11:10:58.358Z,1009.68
2024-04-18T11:11:59.213Z,1009.65
2024-04-18T11:13:00.117Z,1009.63
2024-04-18T11:14:00.997Z,1009.59
2024-04-18T11:15:01.953Z,1009.60
2024-04-18T11:16:02.823Z,1009.55
2024-04-18T11:17:03.716Z,1009.54
2024-04-18T11:18:04.728Z,1009.52
2024-04-18T11:19:05.292Z,1009.49
2024-04-18T11:20:06.530Z,1009.44
2024-04-18T11:21:06.410Z,1009.45
2024-04-18T11:22:07.283Z,1009.58
2024-04-18T11:23:14.830Z,1009.58
2024-04-18T11:24:09.994Z,1009.58
2024-04-18T11:25:09.851Z,1009.59
2024-04-18T11:26:10.741Z,1009.61
2024-04-18T11:27:11.713Z,1009.64
2024-04-18T11:28:12.651Z,1009.64
2024-04-18T11:29:13.523Z,1009.62
2024-04-18T11:30:14.429Z,1009.62
2024-04-18T11:31:15.392Z,1009.62
2024-04-18T11:32:16.344Z,1009.59
2024-04-18T11:33:17.328Z,1009.63
2024-04-18T11:34:18.283Z,1009.58
2024-04-18T11:35:19.161Z,1009.57
2024-04-18T11:36:20.134Z,1009.55
2024-04-18T11:37:21.011Z,1009.49
2024-04-18T11:38:21.908Z,1009.45
2024-04-18T11:39:22.814Z,1009.42
2024-04-18T11:40:23.684Z,1009.40
2024-04-18T11:41:24.565Z,1009.38
2024-04-18T11:42:25.457Z,1009.42
2024-04-18T11:43:26.351Z,1009.41
2024-04-18T11:44:28.668Z,1009.43
2024-04-18T11:45:28.177Z,1009.45
2024-04-18T11:46:29.047Z,1009.52
2024-04-18T11:47:30.113Z,1009.54
2024-04-18T11:48:30.656Z,1009.57
2024-04-18T11:49:31.622Z,1009.56
2024-04-18T11:50:32.519Z,1009.58
2024-04-18T11:51:33.468Z,1009.61
2024-04-18T11:52:34.374Z,1009.61
2024-04-18T11:53:35.226Z,1009.61
2024-04-18T11:54:36.344Z,1009.65
2024-04-18T11:55:36.868Z,1009.65
2024-04-18T11:56:37.751Z,1009.67
2024-04-18T11:57:38.644Z,1009.70
2024-04-18T11:58:39.532Z,1009.71
2024-04-18T11:59:40.439Z,1009.69
2024-04-18T12:00:41.374Z,1009.71
2024-04-18T12:01:42.230Z,1009.73
2024-04-18T12:02:43.111Z,1009.66
2024-04-18T12:03:44.201Z,1009.64
2024-04-18T12:04:44.665Z,1009.61
2024-04-18T12:05:45.519Z,1009.56
2024-04-18T12:06:46.433Z,1009.56
2024-04-18T12:07:47.333Z,1009.53
2024-04-18T12:08:52.239Z,1009.51
2024-04-18T12:09:50.021Z,1009.50
2024-04-18T12:10:49.898Z,1009.45
2024-04-18T12:11:50.795Z,1009.47
2024-04-18T12:12:51.670Z,1009.41
2024-04-18T12:13:52.990Z,1009.51
2024-04-18T12:14:53.377Z,1009.55
2024-04-18T12:15:54.312Z,1009.56
2024-04-18T12:16:55.204Z,1009.58
2024-04-18T12:17:56.094Z,1009.56
2024-04-18T12:18:56.997Z,1009.59
2024-04-18T12:19:57.870Z,1009.61
2024-04-18T12:20:58.749Z,1009.62
2024-04-18T12:21:59.651Z,1009.62